createdAt,value
2022-08-28T00:01:44.599Z,1.60
2022-08-28T00:04:46.732Z,1.50
2022-08-28T00:07:49.004Z,1.42
2022-08-28T00:10:51.127Z,1.20
2022-08-28T00:13:53.313Z,1.48
2022-08-28T00:16:58.724Z,1.40
2022-08-28T00:20:00.918Z,1.88
2022-08-28T00:23:03.275Z,1.55
2022-08-28T00:26:05.451Z,1.75
2022-08-28T00:29:08.561Z,1.63
2022-08-28T00:32:10.724Z,1.80
2022-08-28T00:35:12.888Z,1.58
2022-08-28T00:38:15.868Z,1.50
2022-08-28T00:41:18.047Z,1.77
2022-08-28T00:44:28.800Z,1.70
2022-08-28T00:47:30.988Z,1.85
2022-08-28T00:50:52.967Z,1.90
2022-08-28T00:53:59.423Z,1.88
2022-08-28T00:57:07.826Z,2.17
2022-08-28T01:00:19.910Z,1.88
2022-08-28T01:03:25.012Z,2.08
2022-08-28T01:06:28.534Z,2.08
2022-08-28T01:09:31.313Z,2.15
2022-08-28T01:12:33.533Z,1.90
2022-08-28T01:15:36.118Z,1.85
2022-08-28T01:18:39.377Z,2.20
2022-08-28T01:22:11.436Z,2.10
2022-08-28T01:25:18.439Z,1.90
2022-08-28T01:28:20.689Z,1.80
2022-08-28T01:31:22.894Z,2.03
2022-08-28T01:34:25.074Z,1.85
2022-08-28T01:37:27.216Z,2.03
2022-08-28T01:40:38.137Z,2.10
2022-08-28T01:43:41.182Z,2.00
2022-08-28T01:46:43.527Z,1.80
2022-08-28T01:49:45.747Z,1.90
2022-08-28T01:52:47.964Z,2.10
2022-08-28T01:55:50.704Z,2.40
2022-08-28T01:58:53.251Z,2.17
2022-08-28T02:01:55.510Z,1.80
2022-08-28T02:04:58.295Z,2.10
2022-08-28T02:08:02.775Z,2.00
2022-08-28T02:11:06.385Z,2.30
2022-08-28T02:14:08.724Z,2.30
2022-08-28T02:17:12.187Z,2.38
2022-08-28T02:20:14.601Z,2.00
2022-08-28T02:23:17.950Z,2.17
2022-08-28T02:26:20.873Z,1.90
2022-08-28T02:29:23.601Z,1.75
2022-08-28T02:32:26.868Z,2.67
2022-08-28T02:35:29.089Z,2.22
2022-08-28T02:38:31.187Z,1.90
2022-08-28T02:41:34.897Z,2.00
2022-08-28T02:44:37.018Z,1.90
2022-08-28T02:47:40.716Z,1.70
2022-08-28T02:50:42.778Z,1.95
2022-08-28T02:53:44.938Z,1.70
2022-08-28T02:56:47.087Z,2.00
2022-08-28T02:59:49.170Z,1.60
2022-08-28T03:02:51.453Z,1.88
2022-08-28T03:05:53.668Z,2.03
2022-08-28T03:08:55.834Z,2.20
2022-08-28T03:11:57.905Z,2.55
2022-08-28T03:15:00.086Z,2.20
2022-08-28T03:18:02.174Z,2.72
2022-08-28T03:21:10.394Z,2.10
2022-08-28T03:24:12.518Z,2.30
2022-08-28T03:27:17.794Z,2.33
2022-08-28T03:30:20.475Z,2.15
2022-08-28T03:33:22.550Z,1.90
2022-08-28T03:36:26.819Z,1.83
2022-08-28T03:39:28.910Z,2.13
2022-08-28T03:42:31.570Z,1.67
2022-08-28T03:45:34.674Z,1.70
2022-08-28T03:48:37.581Z,1.92
2022-08-28T03:51:39.665Z,2.08
2022-08-28T03:54:41.732Z,2.28
2022-08-28T03:57:44.314Z,1.90
2022-08-28T04:00:46.515Z,1.73
2022-08-28T04:03:48.907Z,1.90
2022-08-28T04:06:51.006Z,1.90
2022-08-28T04:09:53.802Z,1.83
2022-08-28T04:12:56.115Z,1.80
2022-08-28T04:16:05.176Z,1.90
2022-08-28T04:19:08.657Z,2.17
2022-08-28T04:22:10.859Z,2.10
2022-08-28T04:25:12.988Z,2.85
2022-08-28T04:28:15.062Z,2.88
2022-08-28T04:31:17.697Z,3.22
2022-08-28T04:34:19.858Z,3.17
2022-08-28T04:37:22.820Z,3.10
2022-08-28T04:40:30.118Z,2.75
2022-08-28T04:43:32.334Z,2.80
2022-08-28T04:46:34.591Z,2.40
2022-08-28T04:49:36.804Z,2.25
2022-08-28T04:52:38.894Z,2.35
2022-08-28T04:55:53.462Z,2.20
2022-08-28T04:58:56.922Z,2.30
2022-08-28T05:01:59.071Z,2.17
2022-08-28T05:05:01.163Z,2.03
2022-08-28T05:08:03.479Z,2.00
2022-08-28T05:11:33.837Z,2.30
2022-08-28T05:14:36.891Z,2.10
2022-08-28T05:17:38.991Z,2.20
2022-08-28T05:20:43.773Z,1.73
2022-08-28T05:23:46.429Z,1.88
2022-08-28T05:26:48.791Z,2.05
2022-08-28T05:29:51.357Z,1.83
2022-08-28T05:32:53.993Z,1.88
2022-08-28T05:35:56.086Z,1.90
2022-08-28T05:38:58.318Z,2.42
2022-08-28T05:42:00.426Z,1.70
2022-08-28T05:45:02.577Z,1.55
2022-08-28T05:48:04.794Z,1.83
2022-08-28T05:51:08.917Z,1.60
2022-08-28T05:54:11.646Z,1.60
2022-08-28T05:57:13.719Z,2.00
2022-08-28T06:00:15.993Z,1.80
2022-08-28T06:03:18.063Z,1.30
2022-08-28T06:06:20.133Z,1.73
2022-08-28T06:09:29.604Z,1.50
2022-08-28T06:12:32.203Z,1.90
2022-08-28T06:15:36.078Z,1.90
2022-08-28T06:18:38.449Z,1.85
2022-08-28T06:21:41.499Z,1.58
2022-08-28T06:24:43.646Z,1.58
2022-08-28T06:27:45.739Z,1.88
2022-08-28T06:31:18.059Z,1.58
2022-08-28T06:34:10.186Z,1.55
2022-08-28T06:37:12.269Z,2.03
2022-08-28T06:40:14.754Z,1.95
2022-08-28T06:43:17.710Z,2.17
2022-08-28T06:46:19.989Z,1.70
2022-08-28T06:49:22.207Z,1.90
2022-08-28T06:52:24.271Z,1.98
2022-08-28T06:55:26.427Z,2.10
2022-08-28T06:58:29.554Z,2.85
2022-08-28T07:01:34.830Z,2.60
2022-08-28T07:04:38.077Z,2.85
2022-08-28T07:07:40.246Z,2.05
2022-08-28T07:10:42.313Z,2.17
2022-08-28T07:13:45.034Z,2.08
2022-08-28T07:16:47.214Z,2.35
2022-08-28T07:19:49.387Z,2.28
2022-08-28T07:22:54.133Z,2.33
2022-08-28T07:26:06.535Z,2.40
2022-08-28T07:29:09.990Z,2.40
2022-08-28T07:32:13.383Z,1.85
2022-08-28T07:35:16.766Z,1.73
2022-08-28T07:38:19.168Z,2.03
2022-08-28T07:41:24.140Z,2.08
2022-08-28T07:44:45.024Z,1.88
2022-08-28T07:47:47.218Z,1.95
2022-08-28T07:50:49.499Z,1.58
2022-08-28T07:53:53.434Z,1.70
2022-08-28T07:56:55.767Z,1.80
2022-08-28T07:59:59.439Z,1.70
2022-08-28T08:03:01.574Z,1.80
2022-08-28T08:06:04.622Z,1.70
2022-08-28T08:09:09.149Z,2.08
2022-08-28T08:12:11.754Z,1.75
2022-08-28T08:15:14.029Z,1.75
2022-08-28T08:18:17.184Z,1.90
2022-08-28T08:21:26.051Z,1.73
2022-08-28T08:24:30.525Z,1.90
2022-08-28T08:27:33.424Z,1.77
2022-08-28T08:30:35.494Z,1.70
2022-08-28T08:33:39.368Z,1.80
2022-08-28T08:36:41.439Z,1.80
2022-08-28T08:39:43.953Z,1.80
2022-08-28T08:42:48.138Z,1.85
2022-08-28T08:45:52.119Z,1.60
2022-08-28T08:48:54.286Z,1.65
2022-08-28T08:52:25.324Z,1.80
2022-08-28T08:55:31.402Z,1.95
2022-08-28T08:58:37.119Z,1.80
2022-08-28T09:02:07.487Z,1.65
2022-08-28T09:05:15.551Z,1.92
2022-08-28T09:08:28.015Z,1.90
2022-08-28T09:11:57.109Z,2.10
2022-08-28T09:15:05.581Z,2.25
2022-08-28T09:18:28.670Z,1.70
2022-08-28T09:21:34.152Z,1.98
2022-08-28T09:24:39.290Z,2.08
2022-08-28T09:27:52.764Z,1.90
2022-08-28T09:31:05.485Z,1.90
2022-08-28T09:34:23.669Z,1.90
2022-08-28T09:37:26.576Z,1.88
2022-08-28T09:40:50.868Z,1.90
2022-08-28T09:43:53.016Z,2.15
2022-08-28T09:46:55.138Z,2.10
2022-08-28T09:50:14.307Z,2.22
2022-08-28T09:53:19.621Z,2.30
2022-08-28T09:56:30.456Z,2.42
2022-08-28T09:59:32.562Z,1.88
2022-08-28T10:02:54.322Z,2.15
2022-08-28T10:06:19.978Z,1.90
2022-08-28T10:09:36.870Z,1.95
2022-08-28T10:13:30.282Z,2.28
2022-08-28T10:16:49.103Z,1.80
2022-08-28T10:20:17.809Z,1.95
2022-08-28T10:23:28.750Z,2.40
2022-08-28T10:26:43.386Z,2.00
2022-08-28T10:29:53.730Z,2.15
2022-08-28T10:33:41.897Z,2.60
2022-08-28T10:36:44.724Z,1.80
2022-08-28T10:39:59.076Z,1.98
2022-08-28T10:43:07.392Z,1.98
2022-08-28T10:46:46.324Z,2.22
2022-08-28T10:49:50.570Z,2.47
2022-08-28T10:53:32.046Z,1.77
2022-08-28T10:56:43.195Z,2.55
2022-08-28T10:59:46.985Z,2.30
2022-08-28T11:02:55.433Z,1.95
2022-08-28T11:06:05.865Z,2.00
2022-08-28T11:09:26.767Z,2.00
2022-08-28T11:12:34.375Z,1.60
2022-08-28T11:15:37.557Z,1.70
2022-08-28T11:19:09.949Z,2.08
2022-08-28T11:22:22.666Z,1.85
2022-08-28T11:25:47.467Z,2.30
2022-08-28T11:28:50.654Z,2.40
2022-08-28T11:32:28.737Z,2.13
2022-08-28T11:35:30.715Z,1.88
2022-08-28T11:38:41.578Z,2.40
2022-08-28T11:42:11.249Z,2.08
2022-08-28T11:45:42.626Z,2.33
2022-08-28T11:48:56.656Z,2.17
2022-08-28T11:52:23.712Z,2.47
2022-08-28T11:55:55.085Z,1.93
2022-08-28T11:59:08.123Z,2.00
2022-08-28T12:02:39.953Z,2.33
2022-08-28T12:05:45.611Z,2.20
2022-08-28T12:08:51.407Z,1.85
2022-08-28T12:12:07.230Z,2.00
2022-08-28T12:15:09.594Z,1.98
2022-08-28T12:18:11.864Z,1.77
2022-08-28T12:21:17.845Z,1.60
2022-08-28T12:24:22.542Z,1.70
2022-08-28T12:27:25.141Z,1.60
2022-08-28T12:30:33.462Z,1.60
2022-08-28T12:33:47.142Z,1.55
2022-08-28T12:36:57.610Z,1.40
2022-08-28T12:40:27.968Z,1.40
2022-08-28T12:43:41.738Z,1.95
2022-08-28T12:46:49.529Z,2.22
2022-08-28T12:49:51.687Z,2.17
2022-08-28T12:52:56.859Z,2.40
2022-08-28T12:55:59.123Z,2.10
2022-08-28T12:59:38.951Z,1.85
2022-08-28T13:02:41.403Z,2.17
2022-08-28T13:05:43.802Z,2.30
2022-08-28T13:08:47.894Z,2.30
2022-08-28T13:11:51.431Z,1.98
2022-08-28T13:14:53.950Z,2.22
2022-08-28T13:17:56.264Z,4.78
2022-08-28T13:21:15.179Z,1.85
2022-08-28T13:24:27.358Z,1.90
2022-08-28T13:27:29.663Z,2.38
2022-08-28T13:30:33.852Z,2.20
2022-08-28T13:33:36.065Z,2.08
2022-08-28T13:36:50.004Z,2.20
2022-08-28T13:39:52.150Z,2.10
2022-08-28T13:43:00.915Z,2.70
2022-08-28T13:46:03.199Z,2.70
2022-08-28T13:49:05.397Z,2.78
2022-08-28T13:52:07.951Z,2.70
2022-08-28T13:55:11.683Z,3.08
2022-08-28T13:58:14.297Z,2.50
2022-08-28T14:01:19.667Z,2.80
2022-08-28T14:04:24.791Z,2.80
2022-08-28T14:07:26.948Z,2.70
2022-08-28T14:10:29.170Z,2.83
2022-08-28T14:13:31.342Z,2.78
2022-08-28T14:16:37.847Z,3.28
2022-08-28T14:19:42.197Z,2.90
2022-08-28T14:22:44.622Z,3.17
2022-08-28T14:25:47.311Z,3.30
2022-08-28T14:28:49.472Z,2.90
2022-08-28T14:31:51.874Z,3.40
2022-08-28T14:34:54.098Z,3.33
2022-08-28T14:37:56.467Z,3.40
2022-08-28T14:40:58.654Z,3.35
2022-08-28T14:44:00.911Z,3.20
2022-08-28T14:47:03.353Z,3.45
2022-08-28T14:50:06.604Z,3.30
2022-08-28T14:53:09.770Z,3.78
2022-08-28T14:56:12.071Z,4.40
2022-08-28T14:59:21.921Z,4.15
2022-08-28T15:02:26.070Z,3.92
2022-08-28T15:05:28.530Z,3.75
2022-08-28T15:08:31.034Z,3.47
2022-08-28T15:11:35.419Z,3.80
2022-08-28T15:14:37.567Z,3.50
2022-08-28T15:17:39.714Z,3.55
2022-08-28T15:20:44.844Z,3.28
2022-08-28T15:23:49.734Z,3.42
2022-08-28T15:26:52.079Z,3.85
2022-08-28T15:29:54.225Z,4.00
2022-08-28T15:32:56.339Z,3.88
2022-08-28T15:35:58.469Z,4.35
2022-08-28T15:39:19.344Z,3.58
2022-08-28T15:42:21.498Z,3.90
2022-08-28T15:45:23.668Z,4.88
2022-08-28T15:48:25.882Z,4.63
2022-08-28T15:51:28.119Z,3.88
2022-08-28T15:54:30.323Z,3.92
2022-08-28T15:57:32.839Z,4.05
2022-08-28T16:00:34.995Z,5.47
2022-08-28T16:03:38.254Z,5.28
2022-08-28T16:06:40.649Z,4.90
2022-08-28T16:09:42.814Z,4.15
2022-08-28T16:12:44.942Z,4.38
2022-08-28T16:15:52.378Z,4.97
2022-08-28T16:18:54.557Z,4.53
2022-08-28T16:21:57.118Z,4.45
2022-08-28T16:24:59.243Z,4.38
2022-08-28T16:28:01.606Z,4.90
2022-08-28T16:31:07.377Z,4.03
2022-08-28T16:34:10.931Z,4.50
2022-08-28T16:37:18.576Z,4.55
2022-08-28T16:40:23.672Z,4.10
2022-08-28T16:43:25.912Z,3.78
2022-08-28T16:46:28.226Z,4.50
2022-08-28T16:49:30.370Z,4.63
2022-08-28T16:52:32.510Z,4.53
2022-08-28T16:55:35.102Z,5.45
2022-08-28T16:58:38.101Z,5.13
2022-08-28T17:01:40.813Z,4.88
2022-08-28T17:04:44.174Z,4.50
2022-08-28T17:07:47.475Z,5.05
2022-08-28T17:10:49.603Z,4.97
2022-08-28T17:13:51.710Z,4.75
2022-08-28T17:16:53.846Z,4.97
2022-08-28T17:19:55.984Z,4.85
2022-08-28T17:22:58.220Z,4.80
2022-08-28T17:26:00.426Z,4.75
2022-08-28T17:29:03.006Z,6.20
2022-08-28T17:32:07.813Z,5.15
2022-08-28T17:35:09.946Z,4.35
2022-08-28T17:38:12.500Z,5.18
2022-08-28T17:41:14.919Z,5.68
2022-08-28T17:44:17.120Z,5.07
2022-08-28T17:47:21.750Z,4.68
2022-08-28T17:50:32.921Z,5.00
2022-08-28T17:53:35.429Z,4.85
2022-08-28T17:56:37.611Z,4.40
2022-08-28T17:59:40.239Z,4.55
2022-08-28T18:02:43.463Z,4.28
2022-08-28T18:05:46.275Z,4.55
2022-08-28T18:08:48.562Z,4.28
2022-08-28T18:11:51.394Z,4.57
2022-08-28T18:14:53.550Z,4.95
2022-08-28T18:17:55.823Z,5.32
2022-08-28T18:20:58.504Z,5.50
2022-08-28T18:24:00.622Z,5.03
2022-08-28T18:27:03.201Z,7.07
2022-08-28T18:30:05.930Z,8.90
2022-08-28T18:33:08.864Z,8.40
2022-08-28T18:36:12.571Z,8.65
2022-08-28T18:39:15.229Z,7.18
2022-08-28T18:42:25.025Z,5.43
2022-08-28T18:45:27.181Z,5.50
2022-08-28T18:48:29.379Z,7.35
2022-08-28T18:51:32.678Z,6.78
2022-08-28T18:54:34.810Z,6.35
2022-08-28T18:57:37.958Z,6.18
2022-08-28T19:00:40.197Z,6.25
2022-08-28T19:03:42.313Z,5.88
2022-08-28T19:06:44.493Z,5.55
2022-08-28T19:09:49.219Z,5.80
2022-08-28T19:12:51.371Z,5.60
2022-08-28T19:15:53.717Z,5.40
2022-08-28T19:18:55.924Z,5.80
2022-08-28T19:21:58.050Z,6.07
2022-08-28T19:25:02.603Z,5.93
2022-08-28T19:28:04.818Z,7.72
2022-08-28T19:31:07.894Z,6.05
2022-08-28T19:34:12.094Z,7.10
2022-08-28T19:37:16.211Z,6.45
2022-08-28T19:40:18.481Z,6.10
2022-08-28T19:43:20.634Z,6.28
2022-08-28T19:46:22.783Z,6.28
2022-08-28T19:49:24.946Z,7.05
2022-08-28T19:52:27.155Z,7.63
2022-08-28T19:55:29.619Z,7.10
2022-08-28T19:58:32.579Z,7.53
2022-08-28T20:01:38.146Z,7.30
2022-08-28T20:04:40.359Z,7.20
2022-08-28T20:07:42.455Z,7.47
2022-08-28T20:10:46.100Z,7.93
2022-08-28T20:13:48.497Z,7.30
2022-08-28T20:16:51.489Z,7.03
2022-08-28T20:19:53.893Z,8.13
2022-08-28T20:22:56.146Z,7.65
2022-08-28T20:25:58.470Z,8.10
2022-08-28T20:29:01.060Z,7.82
2022-08-28T20:32:04.366Z,7.55
2022-08-28T20:35:08.383Z,7.32
2022-08-28T20:38:11.148Z,7.25
2022-08-28T20:41:21.157Z,7.60
2022-08-28T20:44:23.367Z,7.25
2022-08-28T20:47:26.011Z,6.65
2022-08-28T20:50:28.123Z,7.05
2022-08-28T20:53:37.578Z,6.78
2022-08-28T20:56:40.242Z,6.45
2022-08-28T20:59:43.460Z,6.85
2022-08-28T21:02:45.586Z,6.43
2022-08-28T21:05:47.806Z,6.60
2022-08-28T21:08:51.351Z,6.30
2022-08-28T21:11:53.480Z,6.15
2022-08-28T21:14:55.631Z,6.00
2022-08-28T21:17:58.467Z,6.38
2022-08-28T21:21:04.446Z,6.35
2022-08-28T21:24:08.363Z,6.40
2022-08-28T21:27:10.463Z,7.07
2022-08-28T21:30:14.831Z,6.85
2022-08-28T21:33:16.992Z,5.82
2022-08-28T21:36:19.204Z,6.18
2022-08-28T21:39:21.291Z,5.95
2022-08-28T21:42:23.535Z,6.22
2022-08-28T21:45:25.598Z,6.10
2022-08-28T21:48:27.959Z,5.97
2022-08-28T21:51:30.042Z,6.07
2022-08-28T21:54:32.113Z,6.40
2022-08-28T21:57:34.591Z,6.20
2022-08-28T22:00:36.658Z,6.72
2022-08-28T22:03:38.727Z,5.90
2022-08-28T22:06:40.869Z,5.40
2022-08-28T22:09:43.199Z,5.82
2022-08-28T22:12:45.269Z,6.30
2022-08-28T22:15:48.006Z,5.32
2022-08-28T22:18:50.564Z,5.43
2022-08-28T22:22:11.462Z,5.65
2022-08-28T22:25:13.991Z,5.70
2022-08-28T22:28:16.145Z,5.50
2022-08-28T22:31:18.265Z,4.80
2022-08-28T22:34:20.408Z,4.47
2022-08-28T22:37:23.271Z,4.32
2022-08-28T22:40:25.528Z,5.07
2022-08-28T22:43:27.722Z,4.32
2022-08-28T22:46:30.085Z,5.00
2022-08-28T22:49:32.224Z,4.20
2022-08-28T22:52:34.373Z,4.30
2022-08-28T22:55:40.089Z,4.35
2022-08-28T22:58:45.436Z,4.75
2022-08-28T23:01:47.535Z,4.45
2022-08-28T23:04:51.317Z,4.30
2022-08-28T23:07:55.159Z,4.68
2022-08-28T23:10:59.275Z,4.75
2022-08-28T23:14:01.810Z,4.45
2022-08-28T23:17:03.965Z,4.70
2022-08-28T23:20:08.211Z,4.43
2022-08-28T23:23:12.366Z,5.10
2022-08-28T23:26:15.125Z,4.18
2022-08-28T23:29:17.326Z,4.50
2022-08-28T23:32:19.437Z,4.78
2022-08-28T23:35:22.339Z,4.75
2022-08-28T23:38:24.448Z,4.93
2022-08-28T23:41:28.310Z,4.85
2022-08-28T23:44:30.427Z,5.07
2022-08-28T23:47:33.307Z,4.68
2022-08-28T23:50:35.386Z,5.82
2022-08-28T23:53:38.927Z,5.28
2022-08-28T23:56:41.833Z,5.68
2022-08-28T23:59:44.223Z,5.38
